Hockessin, Delaware
Current Conditions -  °F | °C
As of 11:36 AM on Wednesday 26 Nov 2014 (Local Time) from KILG Reporting Station
Light Snow Light Snow  
Wind Chill: 26°   Ceiling: 600
Heat Index: 34°   Visibility: 0.75mi
Dew Point: 32°   Wind: 10mph
Humidity: 92%   Direction: 350°N
Pressure: 30.03"   Gusts: NA
Location:  39.79°N, 75.69°W
Report Text: KILG 261636Z 35009KT 3/4SM R01/5000VP6000FT -SN BR BKN006 OVC018 01/00 A3003 RMK AO2 LTG DSNT NE AND SW RAE22SNB22 P0011 I1000 T00110000
Loading
Personal Weather Stations






























Interactive Weather Map New forecast layout! Learn more

10-Day Weather Forecast

Advertisements
Track Severe Weather on mobile